createdAt,value
2019-01-29T00:02:21.001Z,94349.60
2019-01-29T00:04:51.259Z,94351.33
2019-01-29T00:07:21.485Z,94350.09
2019-01-29T00:09:51.816Z,94353.00
2019-01-29T00:12:22.076Z,94359.93
2019-01-29T00:14:52.327Z,94365.48
2019-01-29T00:17:22.576Z,94368.05
2019-01-29T00:19:52.809Z,94370.97
2019-01-29T00:22:23.073Z,94366.44
2019-01-29T00:24:53.295Z,94368.97
2019-01-29T00:27:23.664Z,94366.91
2019-01-29T00:29:53.985Z,94380.48
2019-01-29T00:32:24.223Z,94375.86
2019-01-29T00:34:54.463Z,94380.96
2019-01-29T00:37:24.695Z,94376.36
2019-01-29T00:39:54.921Z,94376.42
2019-01-29T00:42:25.224Z,94375.61
2019-01-29T00:44:55.482Z,94378.67
2019-01-29T00:47:25.695Z,94383.30
2019-01-29T00:49:55.919Z,94389.77
2019-01-29T00:52:26.371Z,94383.78
2019-01-29T00:54:56.584Z,94388.52
2019-01-29T00:57:26.812Z,94385.51
2019-01-29T00:59:57.090Z,94392.81
2019-01-29T01:02:27.397Z,94398.82
2019-01-29T01:04:57.622Z,94400.47
2019-01-29T01:07:27.933Z,94403.09
2019-01-29T01:09:58.253Z,94414.98
2019-01-29T01:12:28.713Z,94414.22
2019-01-29T01:14:58.955Z,94416.39
2019-01-29T01:17:29.200Z,94423.66
2019-01-29T01:19:59.454Z,94430.07
2019-01-29T01:22:29.752Z,94432.23
2019-01-29T01:24:59.997Z,94431.41
2019-01-29T01:27:30.266Z,94432.25
2019-01-29T01:30:00.524Z,94427.63
2019-01-29T01:32:30.772Z,94433.66
2019-01-29T01:35:01.000Z,94442.19
2019-01-29T01:37:31.270Z,94436.63
2019-01-29T01:40:01.484Z,94443.06
2019-01-29T01:42:31.855Z,94438.78
2019-01-29T01:45:02.098Z,94443.52
2019-01-29T01:47:32.370Z,94451.23
2019-01-29T01:50:02.587Z,94449.52
2019-01-29T01:52:32.828Z,94448.73
2019-01-29T01:55:03.118Z,94454.27
2019-01-29T01:57:33.379Z,94456.34
2019-01-29T02:00:03.851Z,94460.16
2019-01-29T02:02:34.099Z,94458.44
2019-01-29T02:05:05.078Z,94457.63
2019-01-29T02:07:35.344Z,94459.77
2019-01-29T02:10:08.433Z,94464.48
2019-01-29T02:12:38.700Z,94465.34
2019-01-29T02:15:09.428Z,94464.08
2019-01-29T02:17:39.687Z,94465.37
2019-01-29T02:20:10.963Z,94471.75
2019-01-29T02:22:41.244Z,94474.77
2019-01-29T02:25:11.705Z,94473.47
2019-01-29T02:27:41.946Z,94478.16
2019-01-29T02:30:18.127Z,94478.59
2019-01-29T02:32:48.345Z,94481.22
2019-01-29T02:35:18.568Z,94492.73
2019-01-29T02:37:48.857Z,94496.99
2019-01-29T02:40:27.723Z,94499.16
2019-01-29T02:42:57.956Z,94500.45
2019-01-29T02:45:28.169Z,94503.45
2019-01-29T02:47:58.379Z,94505.13
2019-01-29T02:50:28.613Z,94510.25
2019-01-29T02:52:58.829Z,94516.17
2019-01-29T02:55:29.057Z,94517.40
2019-01-29T02:57:59.301Z,94512.66
2019-01-29T03:00:29.605Z,94515.19
2019-01-29T03:02:59.851Z,94522.39
2019-01-29T03:05:30.081Z,94519.38
2019-01-29T03:08:00.310Z,94528.36
2019-01-29T03:10:30.625Z,94522.36
2019-01-29T03:13:00.904Z,94523.16
2019-01-29T03:15:32.707Z,94514.59
2019-01-29T03:18:02.949Z,94521.90
2019-01-29T03:20:33.163Z,94530.91
2019-01-29T03:23:03.424Z,94537.75
2019-01-29T03:25:33.885Z,94542.47
2019-01-29T03:28:04.355Z,94545.44
2019-01-29T03:30:34.579Z,94547.12
2019-01-29T03:33:04.849Z,94555.30
2019-01-29T03:35:35.120Z,94558.28
2019-01-29T03:38:05.561Z,94562.09
2019-01-29T03:40:35.815Z,94566.37
2019-01-29T03:43:06.088Z,94566.80
2019-01-29T03:45:36.345Z,94565.49
2019-01-29T03:48:06.581Z,94573.17
2019-01-29T03:50:36.835Z,94572.37
2019-01-29T03:53:07.057Z,94572.75
2019-01-29T03:55:37.285Z,94578.72
2019-01-29T03:58:07.513Z,94573.60
2019-01-29T04:00:37.763Z,94579.63
2019-01-29T04:03:07.986Z,94586.45
2019-01-29T04:05:38.229Z,94585.58
2019-01-29T04:08:08.461Z,94583.84
2019-01-29T04:10:38.682Z,94585.58
2019-01-29T04:13:08.930Z,94587.26
2019-01-29T04:15:39.154Z,94590.28
2019-01-29T04:18:09.359Z,94597.94
2019-01-29T04:20:39.699Z,94597.09
2019-01-29T04:23:09.958Z,94596.28
2019-01-29T04:25:40.171Z,94588.56
2019-01-29T04:28:10.410Z,94595.41
2019-01-29T04:30:40.622Z,94594.97
2019-01-29T04:33:10.854Z,94595.38
2019-01-29T04:35:41.086Z,94591.53
2019-01-29T04:38:11.321Z,94597.11
2019-01-29T04:40:41.521Z,94600.98
2019-01-29T04:43:13.184Z,94600.95
2019-01-29T04:45:43.587Z,94602.67
2019-01-29T04:48:13.816Z,94608.20
2019-01-29T04:50:44.101Z,94606.08
2019-01-29T04:53:14.333Z,94604.79
2019-01-29T04:55:44.593Z,94605.63
2019-01-29T04:58:14.823Z,94608.64
2019-01-29T05:00:45.048Z,94610.36
2019-01-29T05:03:15.258Z,94609.43
2019-01-29T05:05:45.481Z,94605.58
2019-01-29T05:08:15.708Z,94611.53
2019-01-29T05:10:45.926Z,94614.13
2019-01-29T05:13:16.200Z,94617.52
2019-01-29T05:15:46.448Z,94610.73
2019-01-29T05:18:16.677Z,94611.10
2019-01-29T05:20:46.902Z,94610.70
2019-01-29T05:23:17.121Z,94610.73
2019-01-29T05:25:47.362Z,94613.32
2019-01-29T05:28:17.627Z,94613.33
2019-01-29T05:30:47.897Z,94620.56
2019-01-29T05:33:18.182Z,94618.91
2019-01-29T05:35:48.407Z,94618.87
2019-01-29T05:38:18.663Z,94624.00
2019-01-29T05:40:48.900Z,94632.14
2019-01-29T05:43:19.126Z,94632.09
2019-01-29T05:45:49.353Z,94633.36
2019-01-29T05:48:19.595Z,94638.47
2019-01-29T05:50:49.981Z,94640.16
2019-01-29T05:53:20.227Z,94642.31
2019-01-29T05:55:50.468Z,94643.95
2019-01-29T05:58:20.708Z,94641.86
2019-01-29T06:00:50.954Z,94641.42
2019-01-29T06:03:21.674Z,94645.70
2019-01-29T06:05:51.898Z,94647.02
2019-01-29T06:08:22.164Z,94649.52
2019-01-29T06:10:52.381Z,94649.98
2019-01-29T06:13:22.653Z,94653.42
2019-01-29T06:15:52.959Z,94662.78
2019-01-29T06:18:23.286Z,94655.47
2019-01-29T06:20:53.570Z,94658.91
2019-01-29T06:23:23.818Z,94658.56
2019-01-29T06:25:54.087Z,94661.95
2019-01-29T06:28:24.298Z,94660.68
2019-01-29T06:30:54.555Z,94668.78
2019-01-29T06:33:24.801Z,94670.92
2019-01-29T06:35:55.048Z,94676.95
2019-01-29T06:38:25.328Z,94671.38
2019-01-29T06:40:55.590Z,94677.34
2019-01-29T06:43:25.830Z,94677.73
2019-01-29T06:45:56.070Z,94680.26
2019-01-29T06:48:26.294Z,94684.59
2019-01-29T06:50:56.535Z,94690.97
2019-01-29T06:53:26.761Z,94687.13
2019-01-29T06:55:57.005Z,94695.28
2019-01-29T06:58:27.374Z,94690.19
2019-01-29T07:00:57.662Z,94698.75
2019-01-29T07:03:27.896Z,94697.91
2019-01-29T07:05:58.146Z,94696.16
2019-01-29T07:08:28.547Z,94696.16
2019-01-29T07:10:58.800Z,94706.88
2019-01-29T07:13:29.055Z,94703.44
2019-01-29T07:16:10.085Z,94708.13
2019-01-29T07:18:43.893Z,94705.13
2019-01-29T07:21:14.178Z,94709.38
2019-01-29T07:23:44.421Z,94714.48
2019-01-29T07:26:14.664Z,94717.03
2019-01-29T07:28:44.927Z,94722.58
2019-01-29T07:31:15.208Z,94720.44
2019-01-29T07:33:45.500Z,94722.59
2019-01-29T07:36:15.759Z,94731.55
2019-01-29T07:38:46.016Z,94732.39
2019-01-29T07:41:16.367Z,94737.53
2019-01-29T07:43:46.659Z,94744.42
2019-01-29T07:46:17.073Z,94737.11
2019-01-29T07:48:47.370Z,94743.49
2019-01-29T07:51:17.656Z,94740.94
2019-01-29T07:53:47.993Z,94740.95
2019-01-29T07:56:18.236Z,94732.77
2019-01-29T07:58:49.303Z,94740.50
2019-01-29T08:01:19.738Z,94746.91
2019-01-29T08:03:49.970Z,94742.20
2019-01-29T08:06:20.205Z,94743.03
2019-01-29T08:08:50.501Z,94742.17
2019-01-29T08:11:20.939Z,94742.63
2019-01-29T08:13:51.176Z,94746.00
2019-01-29T08:16:21.432Z,94743.80
2019-01-29T08:18:51.717Z,94745.96
2019-01-29T08:21:21.971Z,94742.52
2019-01-29T08:23:52.205Z,94749.73
2019-01-29T08:26:22.446Z,94744.64
2019-01-29T08:28:52.701Z,94742.08
2019-01-29T08:31:22.987Z,94753.12
2019-01-29T08:33:53.250Z,94757.78
2019-01-29T08:36:23.572Z,94755.66
2019-01-29T08:38:53.821Z,94760.49
2019-01-29T08:41:24.090Z,94765.30
2019-01-29T08:43:54.364Z,94764.06
2019-01-29T08:46:24.649Z,94764.13
2019-01-29T08:48:54.893Z,94764.93
2019-01-29T08:51:25.197Z,94764.08
2019-01-29T08:53:55.461Z,94757.22
2019-01-29T08:56:25.741Z,94753.73
2019-01-29T08:58:55.987Z,94752.48
2019-01-29T09:01:26.352Z,94752.50
2019-01-29T09:03:56.618Z,94746.91
2019-01-29T09:06:27.211Z,94755.88
2019-01-29T09:08:57.470Z,94754.94
2019-01-29T09:11:27.714Z,94757.95
2019-01-29T09:13:59.240Z,94752.81
2019-01-29T09:16:29.592Z,94753.64
2019-01-29T09:18:59.918Z,94756.25
2019-01-29T09:21:30.149Z,94751.05
2019-01-29T09:24:00.421Z,94748.08
2019-01-29T09:26:30.715Z,94736.61
2019-01-29T09:29:01.142Z,94741.68
2019-01-29T09:31:31.443Z,94732.25
2019-01-29T09:34:01.669Z,94725.34
2019-01-29T09:36:33.929Z,94726.55
2019-01-29T09:39:05.840Z,94722.23
2019-01-29T09:41:36.086Z,94730.33
2019-01-29T09:44:06.411Z,94723.84
2019-01-29T09:46:36.693Z,94722.97
2019-01-29T09:49:06.960Z,94726.00
2019-01-29T09:51:37.205Z,94721.64
2019-01-29T09:54:07.645Z,94722.98
2019-01-29T09:56:37.998Z,94730.28
2019-01-29T09:59:08.229Z,94717.41
2019-01-29T10:01:38.461Z,94723.80
2019-01-29T10:04:08.686Z,94713.86
2019-01-29T10:06:39.036Z,94716.45
2019-01-29T10:09:09.767Z,94716.92
2019-01-29T10:11:40.314Z,94716.91
2019-01-29T10:14:10.526Z,94706.55
2019-01-29T10:16:40.791Z,94700.77
2019-01-29T10:19:11.047Z,94700.33
2019-01-29T10:21:41.481Z,94689.14
2019-01-29T10:24:11.732Z,94693.95
2019-01-29T10:26:41.982Z,94688.72
2019-01-29T10:29:12.237Z,94693.03
2019-01-29T10:31:42.479Z,94690.40
2019-01-29T10:34:12.727Z,94685.22
2019-01-29T10:36:42.973Z,94675.71
2019-01-29T10:39:13.279Z,94676.16
2019-01-29T10:41:43.569Z,94675.42
2019-01-29T10:44:13.845Z,94674.42
2019-01-29T10:46:44.141Z,94666.48
2019-01-29T10:49:14.376Z,94661.83
2019-01-29T10:51:44.621Z,94659.67
2019-01-29T10:54:14.890Z,94652.91
2019-01-29T10:56:45.120Z,94648.28
2019-01-29T10:59:15.448Z,94648.20
2019-01-29T11:01:45.689Z,94640.78
2019-01-29T11:04:15.921Z,94639.58
2019-01-29T11:06:46.175Z,94636.59
2019-01-29T11:09:16.419Z,94629.41
2019-01-29T11:11:46.696Z,94624.12
2019-01-29T11:14:17.030Z,94624.17
2019-01-29T11:16:47.401Z,94624.92
2019-01-29T11:19:17.645Z,94615.45
2019-01-29T11:21:48.191Z,94615.08
2019-01-29T11:24:18.431Z,94605.37
2019-01-29T11:26:48.669Z,94602.77
2019-01-29T11:29:19.003Z,94602.50
2019-01-29T11:31:49.311Z,94595.53
2019-01-29T11:34:19.570Z,94587.13
2019-01-29T11:36:49.811Z,94581.80
2019-01-29T11:39:20.067Z,94581.02
2019-01-29T11:41:50.459Z,94577.28
2019-01-29T11:44:20.680Z,94567.47
2019-01-29T11:46:50.972Z,94573.45
2019-01-29T11:49:21.384Z,94566.00
2019-01-29T11:51:51.631Z,94570.34
2019-01-29T12:28:34.529Z,94526.23
2019-01-29T12:31:23.060Z,94524.94
2019-01-29T12:34:13.082Z,94517.17
2019-01-29T12:37:02.276Z,94517.27
2019-01-29T12:39:51.487Z,94513.39
2019-01-29T12:42:39.669Z,94512.00
2019-01-29T12:45:28.571Z,94503.55
2019-01-29T12:48:18.009Z,94497.98
2019-01-29T12:51:12.524Z,94501.23
2019-01-29T12:54:01.692Z,94500.47
2019-01-29T12:56:50.432Z,94492.42
2019-01-29T12:59:39.241Z,94480.22
2019-01-29T13:02:27.816Z,94475.36
2019-01-29T13:05:17.105Z,94474.50
2019-01-29T13:08:06.650Z,94459.36
2019-01-29T13:10:54.881Z,94463.50
2019-01-29T13:13:43.931Z,94454.33
2019-01-29T13:16:32.350Z,94448.36
2019-01-29T13:19:21.171Z,94446.69
2019-01-29T13:22:10.340Z,94444.14
2019-01-29T13:24:59.428Z,94447.02
2019-01-29T13:27:48.306Z,94437.50
2019-01-29T13:30:36.926Z,94434.69
2019-01-29T13:33:25.697Z,94437.41
2019-01-29T13:36:14.473Z,94434.00
2019-01-29T13:39:05.045Z,94423.66
2019-01-29T13:41:53.991Z,94423.80
2019-01-29T13:44:42.567Z,94419.41
2019-01-29T13:47:31.637Z,94419.88
2019-01-29T13:50:25.948Z,94418.17
2019-01-29T13:53:14.727Z,94416.08
2019-01-29T13:56:03.620Z,94411.98
2019-01-29T13:58:52.873Z,94399.51
2019-01-29T14:01:43.668Z,94407.59
2019-01-29T14:04:32.150Z,94401.75
2019-01-29T14:07:20.665Z,94396.97
2019-01-29T14:10:10.067Z,94388.34
2019-01-29T14:12:58.136Z,94389.17
2019-01-29T14:15:54.770Z,94385.30
2019-01-29T14:18:43.644Z,94382.31
2019-01-29T14:21:32.956Z,94376.69
2019-01-29T14:24:21.762Z,94374.78
2019-01-29T14:27:10.503Z,94372.49
2019-01-29T14:29:59.014Z,94368.22
2019-01-29T14:32:48.382Z,94367.34
2019-01-29T14:35:37.332Z,94368.09
2019-01-29T14:39:06.824Z,94363.06
2019-01-29T14:41:55.026Z,94358.38
2019-01-29T14:44:48.165Z,94351.12
2019-01-29T14:47:37.442Z,94351.63
2019-01-29T14:50:26.739Z,94349.53
2019-01-29T14:53:15.687Z,94348.91
2019-01-29T14:56:04.640Z,94346.28
2019-01-29T14:58:52.847Z,94346.00
2019-01-29T15:01:43.847Z,94340.66
2019-01-29T15:04:32.188Z,94335.09
2019-01-29T15:07:29.688Z,94336.77
2019-01-29T15:10:13.561Z,94333.78
2019-01-29T15:13:01.706Z,94337.33
2019-01-29T15:15:53.731Z,94323.20
2019-01-29T15:18:47.325Z,94317.77
2019-01-29T15:21:37.918Z,94312.36
2019-01-29T15:24:25.458Z,94314.95
2019-01-29T15:27:14.252Z,94314.04
2019-01-29T15:30:03.352Z,94311.89
2019-01-29T15:32:51.985Z,94310.66
2019-01-29T15:35:40.412Z,94312.95
2019-01-29T15:38:29.267Z,94306.09
2019-01-29T15:41:18.012Z,94298.96
2019-01-29T15:44:07.724Z,94299.57
2019-01-29T15:46:56.668Z,94297.94
2019-01-29T15:49:45.567Z,94301.92
2019-01-29T15:52:34.603Z,94307.67
2019-01-29T15:55:23.453Z,94304.68
2019-01-29T15:58:12.502Z,94307.36
2019-01-29T16:01:01.359Z,94308.72
2019-01-29T16:03:50.014Z,94291.67
2019-01-29T16:06:38.527Z,94283.74
2019-01-29T16:09:27.616Z,94285.13
2019-01-29T16:12:16.789Z,94278.83
2019-01-29T16:15:06.274Z,94275.13
2019-01-29T16:17:54.547Z,94268.81
2019-01-29T16:20:42.835Z,94267.28
2019-01-29T16:23:31.399Z,94261.82
2019-01-29T16:26:20.396Z,94261.52
2019-01-29T16:29:08.903Z,94259.47
2019-01-29T16:31:57.620Z,94263.43
2019-01-29T16:34:46.384Z,94253.25
2019-01-29T16:37:35.168Z,94258.08
2019-01-29T16:40:24.623Z,94258.08
2019-01-29T16:43:13.943Z,94251.77
2019-01-29T16:46:02.980Z,94247.13
2019-01-29T16:48:52.344Z,94248.51
2019-01-29T16:51:42.604Z,94249.06
2019-01-29T16:54:30.574Z,94252.56
2019-01-29T16:57:19.570Z,94248.80
2019-01-29T17:00:01.236Z,94239.49
2019-01-29T17:02:31.527Z,94233.56
2019-01-29T17:05:01.847Z,94232.78
2019-01-29T17:07:32.140Z,94228.16
2019-01-29T17:10:02.502Z,94218.76
2019-01-29T17:12:32.783Z,94214.12
2019-01-29T17:15:03.103Z,94204.77
2019-01-29T17:17:33.430Z,94203.48
2019-01-29T17:20:03.757Z,94212.47
2019-01-29T17:22:34.037Z,94212.52
2019-01-29T17:25:04.803Z,94204.39
2019-01-29T17:27:40.132Z,94209.99
2019-01-29T17:30:09.691Z,94204.94
2019-01-29T17:32:40.000Z,94200.31
2019-01-29T17:35:10.333Z,94192.56
2019-01-29T17:37:40.707Z,94190.50
2019-01-29T17:40:11.936Z,94184.26
2019-01-29T17:42:42.185Z,94188.06
2019-01-29T17:45:15.258Z,94185.87
2019-01-29T17:47:45.516Z,94174.36
2019-01-29T17:50:19.149Z,94181.70
2019-01-29T17:52:49.767Z,94175.28
2019-01-29T17:55:20.242Z,94174.48
2019-01-29T17:57:51.046Z,94171.51
2019-01-29T18:00:25.335Z,94164.27
2019-01-29T18:02:55.658Z,94163.90
2019-01-29T18:05:25.977Z,94164.81
2019-01-29T18:07:56.402Z,94155.91
2019-01-29T18:10:26.841Z,94160.67
2019-01-29T18:12:57.207Z,94158.64
2019-01-29T18:15:28.522Z,94146.69
2019-01-29T18:17:59.089Z,94149.21
2019-01-29T18:20:29.587Z,94140.73
2019-01-29T18:22:59.965Z,94140.64
2019-01-29T18:25:30.315Z,94134.61
2019-01-29T18:28:01.564Z,94140.60
2019-01-29T18:30:34.062Z,94135.05
2019-01-29T18:33:04.730Z,94139.15
2019-01-29T18:35:35.146Z,94132.62
2019-01-29T18:38:05.495Z,94130.63
2019-01-29T18:40:42.062Z,94132.78
2019-01-29T18:43:12.381Z,94124.22
2019-01-29T18:45:42.817Z,94114.86
2019-01-29T18:48:13.209Z,94109.82
2019-01-29T18:50:43.628Z,94106.39
2019-01-29T18:53:13.977Z,94104.27
2019-01-29T18:55:44.364Z,94096.54
2019-01-29T18:58:15.335Z,94095.95
2019-01-29T19:00:54.361Z,94089.51
2019-01-29T19:03:17.820Z,94086.45
2019-01-29T19:05:48.396Z,94076.36
2019-01-29T19:08:18.683Z,94072.70
2019-01-29T19:10:49.031Z,94067.50
2019-01-29T19:13:19.348Z,94063.62
2019-01-29T19:15:49.665Z,94064.90
2019-01-29T19:18:20.030Z,94062.75
2019-01-29T19:20:50.335Z,94053.74
2019-01-29T19:23:20.673Z,94055.52
2019-01-29T19:25:52.482Z,94047.61
2019-01-29T19:28:22.873Z,94044.97
2019-01-29T19:30:53.177Z,94040.30
2019-01-29T19:33:23.568Z,94041.27
2019-01-29T19:35:53.884Z,94033.13
2019-01-29T19:38:24.214Z,94028.98
2019-01-29T19:40:54.622Z,94026.35
2019-01-29T19:43:24.985Z,94022.48
2019-01-29T19:45:55.375Z,94019.05
2019-01-29T19:48:25.700Z,94013.92
2019-01-29T19:50:56.140Z,94017.31
2019-01-29T19:53:26.559Z,94015.70
2019-01-29T19:55:56.999Z,94004.58
2019-01-29T19:58:32.289Z,94005.86
2019-01-29T20:00:59.407Z,94001.16
2019-01-29T20:03:29.794Z,93989.25
2019-01-29T20:06:00.173Z,93979.91
2019-01-29T20:08:30.495Z,93977.34
2019-01-29T20:11:00.816Z,93971.77
2019-01-29T20:13:31.132Z,93970.91
2019-01-29T20:16:01.498Z,93964.91
2019-01-29T20:18:32.335Z,93962.36
2019-01-29T20:21:02.954Z,93962.80
2019-01-29T20:23:33.551Z,93958.63
2019-01-29T20:26:03.967Z,93962.52
2019-01-29T20:28:42.294Z,93951.56
2019-01-29T20:31:06.492Z,93949.04
2019-01-29T20:33:36.784Z,93947.75
2019-01-29T20:36:07.253Z,93946.48
2019-01-29T20:38:37.592Z,93937.02
2019-01-29T20:41:07.885Z,93934.13
2019-01-29T20:43:38.213Z,93928.97
2019-01-29T20:46:08.594Z,93933.30
2019-01-29T20:48:38.916Z,93924.71
2019-01-29T20:51:09.297Z,93922.11
2019-01-29T20:53:39.605Z,93920.83
2019-01-29T20:56:09.923Z,93910.98
2019-01-29T20:58:40.257Z,93907.97
2019-01-29T21:01:10.591Z,93911.95
2019-01-29T21:03:40.898Z,93905.14
2019-01-29T21:06:11.207Z,93901.68
2019-01-29T21:08:41.574Z,93895.73
2019-01-29T21:11:11.873Z,93895.47
2019-01-29T21:13:42.211Z,93891.22
2019-01-29T21:16:12.514Z,93882.37
2019-01-29T21:18:42.870Z,93880.16
2019-01-29T21:21:13.234Z,93872.69
2019-01-29T21:23:43.647Z,93869.61
2019-01-29T21:26:13.955Z,93862.88
2019-01-29T21:28:44.356Z,93849.60
2019-01-29T21:31:16.244Z,93854.79
2019-01-29T21:33:46.457Z,93850.61
2019-01-29T21:36:16.746Z,93846.73
2019-01-29T21:38:47.033Z,93846.22
2019-01-29T21:41:17.339Z,93840.31
2019-01-29T21:43:47.621Z,93834.25
2019-01-29T21:46:17.943Z,93829.55
2019-01-29T21:48:48.226Z,93828.80
2019-01-29T21:51:18.500Z,93829.21
2019-01-29T21:53:48.874Z,93825.48
2019-01-29T21:56:19.197Z,93823.86
2019-01-29T21:58:49.461Z,93818.16
2019-01-29T22:01:19.779Z,93810.86
2019-01-29T22:03:50.089Z,93809.17
2019-01-29T22:06:20.373Z,93812.93
2019-01-29T22:08:50.693Z,93804.84
2019-01-29T22:11:21.022Z,93802.62
2019-01-29T22:13:51.424Z,93799.56
2019-01-29T22:16:21.822Z,93800.59
2019-01-29T22:18:52.571Z,93800.52
2019-01-29T22:21:22.927Z,93793.25
2019-01-29T22:23:53.329Z,93783.55
2019-01-29T22:26:23.595Z,93785.66
2019-01-29T22:28:54.008Z,93778.89
2019-01-29T22:31:24.332Z,93774.31
2019-01-29T22:33:54.689Z,93773.03
2019-01-29T22:36:25.025Z,93765.92
2019-01-29T22:38:55.974Z,93774.45
2019-01-29T22:41:26.372Z,93768.41
2019-01-29T22:43:56.672Z,93763.81
2019-01-29T22:46:27.071Z,93759.95
2019-01-29T22:48:57.473Z,93756.94
2019-01-29T22:51:27.778Z,93753.06
2019-01-29T22:53:59.623Z,93758.33
2019-01-29T22:56:30.032Z,93745.06
2019-01-29T22:59:00.318Z,93737.02
2019-01-29T23:01:39.655Z,93732.72
2019-01-29T23:04:13.576Z,93725.06
2019-01-29T23:07:31.131Z,93720.47
2019-01-29T23:10:01.415Z,93713.59
2019-01-29T23:12:31.739Z,93714.58
2019-01-29T23:15:02.006Z,93710.03
2019-01-29T23:17:32.319Z,93709.16
2019-01-29T23:20:02.580Z,93704.95
2019-01-29T23:22:32.859Z,93708.27
2019-01-29T23:25:03.137Z,93696.50
2019-01-29T23:27:33.424Z,93694.73
2019-01-29T23:30:04.455Z,93683.50
2019-01-29T23:32:34.723Z,93683.26
2019-01-29T23:35:05.879Z,93681.91
2019-01-29T23:37:36.204Z,93677.14
2019-01-29T23:40:09.574Z,93674.11
2019-01-29T23:42:39.823Z,93674.11
2019-01-29T23:45:11.577Z,93671.62
2019-01-29T23:47:41.891Z,93675.91
2019-01-29T23:50:13.641Z,93663.06
2019-01-29T23:52:43.971Z,93666.17
2019-01-29T23:55:14.208Z,93655.09
2019-01-29T23:57:44.448Z,93654.68
